Time;durP1;ratioP1;P1;durP2;ratioP2;P2;SDS_P1;SDS_P2;PMS_P1;PMS_P2;Temp;Humidity;BMP_temperature;BMP_pressure;BME280_temperature;BME280_humidity;BME280_pressure;Samples;Min_cycle;Max_cycle;Signal;HPM_P1;HPM_P2
2023/12/28 00:01:26;;;;;;;;;59.50;47.50;;;;;4.06;100.00;100388.59;6277137;20;2866061;-51
2023/12/28 00:03:55;;;;;;;;;50.50;44.00;;;;;3.90;100.00;100390.75;6280460;20;2852391;-47
2023/12/28 00:06:24;;;;;;;;;68.00;51.67;;;;;3.84;100.00;100390.00;6279342;20;2870134;-50
2023/12/28 00:08:53;;;;;;;;;58.50;45.00;;;;;3.89;100.00;100388.13;6309488;20;2861864;-51
2023/12/28 00:11:32;;;;;;;;;64.67;49.00;;;;;4.04;100.00;100390.41;6276735;20;2877513;-50
2023/12/28 00:14:02;;;;;;;;;49.00;40.33;;;;;4.13;100.00;100387.56;6309617;20;2869287;-56
2023/12/28 00:16:32;;;;;;;;;43.33;36.67;;;;;4.32;100.00;100380.00;6310755;20;3622182;-50
2023/12/28 00:19:03;;;;;;;;;38.00;34.00;;;;;4.51;100.00;100391.03;6310608;20;3610827;-49
2023/12/28 00:21:33;;;;;;;;;41.33;36.67;;;;;4.25;100.00;100389.03;6310582;20;2859781;-47
2023/12/28 00:24:02;;;;;;;;;33.50;32.00;;;;;4.28;100.00;100391.63;6310337;20;2851415;-47
2023/12/28 00:26:31;;;;;;;;;53.67;38.00;;;;;3.79;100.00;100386.56;6276284;20;3629437;-48
2023/12/28 00:28:59;;;;;;;;;60.00;46.50;;;;;3.80;100.00;100391.88;6307390;20;2499243;-48
2023/12/28 00:31:28;;;;;;;;;61.00;49.00;;;;;3.55;100.00;100394.16;6278347;20;2863807;-48
2023/12/28 00:33:57;;;;;;;;;65.50;52.00;;;;;3.29;100.00;100392.94;6278600;20;2873976;-47
2023/12/28 00:36:26;;;;;;;;;60.00;49.00;;;;;3.43;100.00;100405.06;6275369;20;2869080;-46
2023/12/28 00:38:55;;;;;;;;;59.50;47.00;;;;;3.54;100.00;100396.88;6278609;20;2863956;-47
2023/12/28 00:41:24;;;;;;;;;63.33;48.00;;;;;3.22;100.00;100396.63;6278737;20;3624394;-46
2023/12/28 00:43:53;;;;;;;;;52.50;44.50;;;;;3.49;100.00;100405.78;6309566;20;2846145;-46
2023/12/28 00:46:22;;;;;;;;;64.00;47.50;;;;;3.74;100.00;100406.16;6278967;20;2868133;-51
2023/12/28 00:48:51;;;;;;;;;55.00;45.50;;;;;3.64;100.00;100407.25;6279533;20;2864879;-53
2023/12/28 00:51:21;;;;;;;;;56.00;44.00;;;;;3.24;100.00;100402.78;6282480;20;2737780;-49
2023/12/28 00:53:50;;;;;;;;;57.00;44.67;;;;;3.33;100.00;100408.81;6315137;20;3612756;-51
2023/12/28 00:56:21;;;;;;;;;52.00;40.33;;;;;3.52;100.00;100410.16;6313274;20;2870128;-52
2023/12/28 00:58:50;;;;;;;;;50.00;39.67;;;;;3.69;100.00;100402.72;6314348;20;2876341;-48
2023/12/28 01:01:19;;;;;;;;;43.50;38.50;;;;;4.31;100.00;100401.28;6314087;20;2846122;-46
2023/12/28 01:03:49;;;;;;;;;46.67;37.00;;;;;4.16;100.00;100403.44;6284303;20;2861757;-47
2023/12/28 01:06:19;;;;;;;;;38.67;34.00;;;;;3.78;100.00;100390.16;6310666;20;2864019;-47
2023/12/28 01:08:48;;;;;;;;;33.00;33.00;;;;;4.15;100.00;100396.34;6315687;20;2858712;-48
2023/12/28 01:11:17;;;;;;;;;42.33;35.00;;;;;4.09;100.00;100391.19;6282012;20;3616037;-47
2023/12/28 01:13:47;;;;;;;;;34.67;31.00;;;;;4.25;100.00;100394.34;6312870;20;2853505;-48
2023/12/28 01:16:15;;;;;;;;;36.00;32.50;;;;;4.02;100.00;100408.16;6311832;20;2853419;-49
2023/12/28 01:18:45;;;;;;;;;50.33;40.00;;;;;3.99;100.00;100400.28;6281966;20;3605614;-47
2023/12/28 01:21:15;;;;;;;;;49.00;37.67;;;;;3.86;100.00;100397.03;6314947;20;3621089;-48
2023/12/28 01:23:45;;;;;;;;;64.33;49.00;;;;;3.27;100.00;100400.06;6313126;20;2870216;-50
2023/12/28 01:26:14;;;;;;;;;56.00;43.00;;;;;3.38;100.00;100404.28;6313542;20;2870185;-45
2023/12/28 01:28:43;;;;;;;;;69.50;49.50;;;;;3.14;100.00;100409.19;6282252;20;2875333;-47
2023/12/28 01:31:13;;;;;;;;;72.33;53.33;;;;;3.12;100.00;100400.38;6283191;20;3635709;-48
2023/12/28 01:33:42;;;;;;;;;92.33;63.00;;;;;3.04;100.00;100394.34;6313310;20;2898244;-47
2023/12/28 01:36:22;;;;;;;;;102.00;85.25;;;;;3.19;100.00;100399.34;6313752;20;3691954;-46
2023/12/28 01:38:52;;;;;;;;;95.67;68.67;;;;;3.28;100.00;100385.88;6279690;20;3668019;-46
2023/12/28 01:41:21;;;;;;;;;89.00;65.00;;;;;3.16;100.00;100387.91;6282994;20;3631881;-48
2023/12/28 01:43:51;;;;;;;;;79.33;59.00;;;;;3.15;100.00;100389.69;6314149;20;3629511;-46
2023/12/28 01:46:23;;;;;;;;;91.50;63.50;;;;;3.29;100.00;100387.66;6310446;20;3604436;-45
2023/12/28 01:48:53;;;;;;;;;91.67;67.00;;;;;3.45;100.00;100392.59;6311745;20;3653430;-47
2023/12/28 01:51:24;;;;;;;;;79.00;58.00;;;;;3.10;100.00;100388.91;6310669;20;3645078;-47
2023/12/28 01:53:54;;;;;;;;;69.67;54.33;;;;;3.28;100.00;100390.31;6279256;20;2878520;-48
2023/12/28 01:56:24;;;;;;;;;84.33;60.67;;;;;3.32;100.00;100380.50;6309243;20;3635712;-48
2023/12/28 01:58:54;;;;;;;;;88.33;64.00;;;;;3.18;100.00;100378.13;6279049;20;3638885;-50
2023/12/28 02:01:26;;;;;;;;;93.33;66.33;;;;;2.99;100.00;100377.63;6309998;20;3649674;-47
2023/12/28 02:03:56;;;;;;;;;100.67;69.00;;;;;2.75;100.00;100373.69;6309683;20;3689871;-50
2023/12/28 02:06:27;;;;;;;;;117.75;89.00;;;;;2.76;100.00;100363.03;6277339;20;3701401;-52
2023/12/28 02:08:57;;;;;;;;;118.00;98.75;;;;;2.92;100.00;100366.25;6312629;20;3703508;-47
2023/12/28 02:11:27;;;;;;;;;97.00;70.67;;;;;2.99;100.00;100354.63;6280690;20;3671112;-47
2023/12/28 02:13:57;;;;;;;;;83.33;62.00;;;;;2.72;100.00;100353.41;6279714;20;3660059;-47
2023/12/28 02:16:39;;;;;;;;;72.67;56.33;;;;;2.70;100.00;100349.03;6310156;20;3637851;-48
2023/12/28 02:19:52;;;;;;;;;62.00;49.50;;;;;2.76;100.00;100356.84;6310149;20;2859670;-51
2023/12/28 02:22:26;;;;;;;;;56.00;46.00;;;;;2.70;100.00;100354.31;6280926;20;2854478;-49
2023/12/28 02:25:14;;;;;;;;;45.33;34.33;;;;;2.51;100.00;100340.53;6277182;20;3629412;-47
2023/12/28 02:27:46;;;;;;;;;61.67;45.00;;;;;2.64;100.00;100347.38;6311169;20;2872253;-47
2023/12/28 02:30:22;;;;;;;;;72.50;49.50;;;;;2.47;100.00;100334.41;6306165;20;2498223;-48
2023/12/28 02:33:29;;;;;;;;;58.00;47.00;;;;;2.48;100.00;100335.31;6279911;20;2865914;-47
2023/12/28 02:36:11;;;;;;;;;55.50;43.00;;;;;2.63;100.00;100337.63;6281316;20;2858592;-49
2023/12/28 02:38:41;;;;;;;;;45.00;41.00;;;;;2.62;100.00;100330.59;6279600;20;2848194;-47
2023/12/28 02:41:13;;;;;;;;;56.33;41.67;;;;;2.70;100.00;100331.34;6279531;20;3633588;-48
2023/12/28 02:43:41;;;;;;;;;55.00;43.50;;;;;2.54;100.00;100338.69;6309242;20;2869145;-49
2023/12/28 02:46:10;;;;;;;;;56.50;46.00;;;;;2.63;100.00;100327.94;6278129;20;2854587;-50
2023/12/28 02:48:39;;;;;;;;;63.00;45.50;;;;;2.45;100.00;100325.63;6280770;20;2854421;-52
2023/12/28 02:51:08;;;;;;;;;62.50;47.00;;;;;2.57;100.00;100327.16;6278257;20;2870205;-47
2023/12/28 02:53:37;;;;;;;;;51.00;42.00;;;;;2.62;100.00;100320.00;6280652;20;2874378;-50
2023/12/28 02:56:07;;;;;;;;;52.33;43.33;;;;;2.75;100.00;100316.22;6280358;20;2877372;-48
2023/12/28 02:58:35;;;;;;;;;44.00;36.33;;;;;2.69;100.00;100315.47;6308849;20;2871182;-46
2023/12/28 03:01:05;;;;;;;;;42.00;32.33;;;;;2.54;100.00;100311.31;6308957;20;2880570;-48
2023/12/28 03:03:34;;;;;;;;;51.67;43.00;;;;;2.71;100.00;100314.50;6309966;20;2877379;-50
2023/12/28 03:06:05;;;;;;;;;47.67;39.00;;;;;2.47;100.00;100312.34;6310741;20;2862890;-49
2023/12/28 03:08:33;;;;;;;;;39.00;37.50;;;;;2.66;100.00;100305.81;6309065;20;2852385;-48
2023/12/28 03:11:02;;;;;;;;;46.00;40.50;;;;;2.51;100.00;100306.09;6277328;20;2855489;-51
2023/12/28 03:13:32;;;;;;;;;52.00;41.00;;;;;2.49;100.00;100307.88;6277331;20;2872246;-50
2023/12/28 03:16:02;;;;;;;;;51.67;38.33;;;;;2.30;100.00;100308.22;6310262;20;3624267;-48
2023/12/28 03:18:31;;;;;;;;;54.33;41.67;;;;;2.38;100.00;100306.31;6311837;20;2877435;-51
2023/12/28 03:21:01;;;;;;;;;59.67;44.00;;;;;2.25;100.00;100303.91;6312199;20;2874427;-47
2023/12/28 03:23:31;;;;;;;;;51.67;40.33;;;;;2.30;100.00;100305.56;6309096;20;2868408;-49
2023/12/28 03:26:01;;;;;;;;;56.33;46.33;;;;;2.14;100.00;100307.59;6312405;20;2855513;-53
2023/12/28 03:28:31;;;;;;;;;64.00;43.33;;;;;2.55;100.00;100308.63;6307939;20;3649216;-49
2023/12/28 03:31:03;;;;;;;;;47.50;42.00;;;;;2.76;100.00;100302.03;6312218;20;2859618;-48
2023/12/28 03:33:32;;;;;;;;;44.50;41.00;;;;;2.78;100.00;100300.25;6279777;20;2863852;-50
2023/12/28 03:36:00;;;;;;;;;64.00;52.00;;;;;2.73;100.00;100298.59;6275538;20;2489887;-50
2023/12/28 03:38:28;;;;;;;;;59.00;47.00;;;;;2.16;100.00;100294.34;6278204;20;2881519;-48
2023/12/28 03:40:58;;;;;;;;;62.00;45.00;;;;;1.83;100.00;100294.00;6279760;20;2872151;-49
2023/12/28 03:43:26;;;;;;;;;42.50;38.50;;;;;1.77;100.00;100298.53;6278032;20;2857578;-47
2023/12/28 03:45:54;;;;;;;;;44.00;38.00;;;;;2.25;100.00;100302.13;6278200;20;2508705;-50
2023/12/28 03:48:24;;;;;;;;;46.00;36.33;;;;;2.26;100.00;100290.63;6277896;20;3627371;-46
2023/12/28 03:50:54;;;;;;;;;53.33;40.00;;;;;2.11;100.00;100290.91;6312536;20;3618003;-48
2023/12/28 03:53:23;;;;;;;;;40.67;36.67;;;;;2.52;100.00;100290.13;6308661;20;2865914;-48
2023/12/28 03:55:52;;;;;;;;;41.50;38.00;;;;;2.22;100.00;100290.72;6306917;20;2871541;-49
2023/12/28 03:58:20;;;;;;;;;37.00;30.00;;;;;2.32;100.00;100290.53;6279736;20;2862891;-53
2023/12/28 04:00:49;;;;;;;;;46.50;38.50;;;;;2.34;100.00;100288.72;6279612;20;2869027;-51
2023/12/28 04:03:18;;;;;;;;;35.00;31.50;;;;;2.31;100.00;100283.47;6276852;20;2858686;-48
2023/12/28 04:05:48;;;;;;;;;42.33;34.00;;;;;2.53;100.00;100281.31;6273807;20;2862932;-52
2023/12/28 04:08:16;;;;;;;;;31.50;29.00;;;;;2.18;100.00;100282.78;6307610;20;2500378;-51
2023/12/28 04:10:44;;;;;;;;;31.50;25.00;;;;;2.51;100.00;100275.16;6279010;20;3467064;-50
2023/12/28 04:13:12;;;;;;;;;34.00;32.50;;;;;2.63;100.00;100274.03;6312946;20;2500345;-48
2023/12/28 04:15:43;;;;;;;;;39.50;34.00;;;;;2.19;100.00;100278.41;6275915;20;2860723;-53
2023/12/28 04:18:12;;;;;;;;;32.33;26.00;;;;;2.25;100.00;100272.97;6277835;20;3598308;-51
2023/12/28 04:20:44;;;;;;;;;33.00;30.50;;;;;2.39;100.00;100267.41;6276661;20;2500311;-49
2023/12/28 04:23:12;;;;;;;;;40.50;30.00;;;;;2.13;100.00;100267.88;6275928;20;2500247;-50
2023/12/28 04:25:41;;;;;;;;;37.50;29.00;;;;;2.10;100.00;100268.81;6273926;20;2854484;-47
2023/12/28 04:28:10;;;;;;;;;40.00;33.00;;;;;1.86;100.00;100267.47;6279701;20;2863792;-47
2023/12/28 04:30:39;;;;;;;;;39.50;31.00;;;;;1.64;100.00;100268.72;6277154;20;2859656;-52
2023/12/28 04:33:08;;;;;;;;;35.50;30.50;;;;;1.62;100.00;100265.22;6280234;20;2852362;-48
2023/12/28 04:35:37;;;;;;;;;36.50;30.00;;;;;1.80;100.00;100270.22;6277160;20;2852394;-49
2023/12/28 04:38:04;;;;;;;;;33.50;30.00;;;;;1.52;100.00;100265.34;6277260;20;2502473;-46
2023/12/28 04:40:34;;;;;;;;;43.33;32.33;;;;;1.70;100.00;100258.03;6278512;20;2869059;-51
2023/12/28 04:43:04;;;;;;;;;48.67;37.67;;;;;1.21;100.00;100259.69;6311110;20;2877474;-46
2023/12/28 04:45:33;;;;;;;;;49.00;38.67;;;;;1.28;100.00;100260.44;6307476;20;3631496;-50
2023/12/28 04:48:04;;;;;;;;;52.33;40.33;;;;;1.30;100.00;100258.66;6308158;20;3616984;-50
2023/12/28 04:50:33;;;;;;;;;43.50;40.00;;;;;1.38;100.00;100250.59;6307587;20;2837792;-48
2023/12/28 04:53:06;;;;;;;;;50.67;40.00;;;;;1.41;100.00;100251.44;6276051;20;2868034;-52
2023/12/28 04:55:36;;;;;;;;;50.33;40.67;;;;;1.24;100.00;100251.69;6306509;20;2873391;-47
2023/12/28 04:58:06;;;;;;;;;46.00;40.33;;;;;1.31;100.00;100247.16;6309893;20;2869044;-52
2023/12/28 05:00:34;;;;;;;;;42.00;38.00;;;;;1.37;100.00;100247.09;6307968;20;2862844;-48
2023/12/28 05:03:04;;;;;;;;;36.00;30.50;;;;;1.72;100.00;100249.19;6276011;20;2854442;-53
2023/12/28 05:05:33;;;;;;;;;46.67;38.33;;;;;1.50;100.00;100250.41;6275084;20;2877436;-49
2023/12/28 05:08:04;;;;;;;;;58.00;46.00;;;;;1.48;100.00;100250.44;6307484;20;2856945;-50
2023/12/28 05:10:33;;;;;;;;;57.00;46.00;;;;;1.41;100.00;100250.56;6303399;20;2864880;-46
2023/12/28 05:13:02;;;;;;;;;60.00;47.00;;;;;1.37;100.00;100260.31;6276721;20;2856737;-50
2023/12/28 05:15:31;;;;;;;;;56.00;44.00;;;;;1.27;100.00;100266.63;6274721;20;2871148;-46
2023/12/28 05:17:59;;;;;;;;;49.00;33.50;;;;;1.04;100.00;100261.66;6277854;20;2857667;-46
2023/12/28 05:20:28;;;;;;;;;55.00;44.50;;;;;0.87;100.00;100259.25;6277253;20;2840900;-49
2023/12/28 05:22:57;;;;;;;;;52.00;43.00;;;;;0.98;100.00;100256.47;6276025;20;2858720;-46
2023/12/28 05:25:26;;;;;;;;;50.33;41.33;;;;;1.08;100.00;100253.69;6276103;20;2873752;-48
2023/12/28 05:27:55;;;;;;;;;55.00;46.50;;;;;1.07;100.00;100251.03;6305582;20;2851395;-46
2023/12/28 05:30:24;;;;;;;;;56.00;45.00;;;;;0.77;100.00;100247.03;6277730;20;2870030;-49
2023/12/28 05:32:54;;;;;;;;;53.33;43.33;;;;;0.79;100.00;100242.59;6278232;20;2858642;-49
2023/12/28 05:35:23;;;;;;;;;63.50;49.00;;;;;0.83;100.00;100246.97;6305321;20;2851537;-50
2023/12/28 05:37:52;;;;;;;;;55.00;46.00;;;;;0.92;100.00;100251.25;6282736;20;2861764;-53
2023/12/28 05:40:21;;;;;;;;;45.00;42.50;;;;;1.04;100.00;100251.97;6279779;20;2855936;-53
2023/12/28 05:42:49;;;;;;;;;58.00;45.00;;;;;1.01;100.00;100259.94;6282994;20;2873242;-53
2023/12/28 05:45:18;;;;;;;;;59.50;48.00;;;;;0.66;100.00;100265.69;6280317;20;2855703;-53
2023/12/28 05:47:48;;;;;;;;;62.33;45.00;;;;;0.58;100.00;100257.84;6280422;20;3644134;-52
2023/12/28 05:50:16;;;;;;;;;57.00;46.00;;;;;0.67;100.00;100255.97;6310485;20;2496222;-49
2023/12/28 05:52:46;;;;;;;;;54.00;45.50;;;;;0.76;100.00;100259.34;6279858;20;2860654;-50
2023/12/28 05:55:14;;;;;;;;;53.50;46.00;;;;;0.61;100.00;100257.78;6278863;20;2854413;-51
2023/12/28 05:57:42;;;;;;;;;60.50;45.50;;;;;0.59;100.00;100256.94;6277885;20;2859635;-49
2023/12/28 06:00:11;;;;;;;;;60.00;45.00;;;;;1.02;100.00;100252.88;6277302;20;2500371;-50
2023/12/28 06:02:41;;;;;;;;;73.33;56.00;;;;;0.75;100.00;100248.81;6280304;20;2870146;-48
2023/12/28 06:05:11;;;;;;;;;73.67;55.00;;;;;0.53;100.00;100238.53;6311724;20;2873216;-51
2023/12/28 06:07:41;;;;;;;;;73.67;57.33;;;;;0.57;100.00;100245.50;6312805;20;2885798;-49
2023/12/28 06:10:10;;;;;;;;;72.50;57.50;;;;;0.58;100.00;100244.63;6310945;20;2877357;-50
2023/12/28 06:12:39;;;;;;;;;88.00;66.00;;;;;0.47;100.00;100243.84;6278757;20;3647126;-49
2023/12/28 06:15:10;;;;;;;;;98.33;70.33;;;;;0.59;100.00;100245.50;6309529;20;3662742;-50
2023/12/28 06:17:39;;;;;;;;;102.00;72.67;;;;;0.57;100.00;100255.19;6311867;20;3687746;-50
2023/12/28 06:20:10;;;;;;;;;93.67;69.00;;;;;0.94;100.00;100262.69;6279872;20;3643086;-46
2023/12/28 06:22:39;;;;;;;;;70.50;49.00;;;;;1.08;100.00;100264.25;6313048;20;2885654;-47
2023/12/28 06:25:12;;;;;;;;;58.67;44.67;;;;;1.07;100.00;100266.91;6278125;20;2869068;-50
2023/12/28 06:27:41;;;;;;;;;36.50;29.00;;;;;0.98;100.00;100273.19;6308810;20;2852641;-49
2023/12/28 06:30:09;;;;;;;;;56.00;38.00;;;;;0.98;100.00;100262.63;6279579;20;2500275;-46
2023/12/28 06:32:38;;;;;;;;;36.50;32.00;;;;;0.57;100.00;100269.28;6278826;20;2849469;-45
2023/12/28 06:35:08;;;;;;;;;56.00;47.00;;;;;0.67;100.00;100282.41;6279167;20;2858724;-47
2023/12/28 06:37:38;;;;;;;;;99.67;75.33;;;;;0.73;100.00;100287.59;6280678;20;3674252;-51
2023/12/28 06:40:09;;;;;;;;;108.33;86.00;;;;;0.91;100.00;100290.03;6276769;20;3697167;-51
2023/12/28 06:42:38;;;;;;;;;123.33;105.00;;;;;0.68;100.00;100292.94;6275830;20;3697180;-47
2023/12/28 06:45:10;;;;;;;;;125.33;99.67;;;;;0.63;100.00;100295.66;6276455;20;3704462;-48
2023/12/28 06:47:39;;;;;;;;;114.00;96.00;;;;;0.95;100.00;100290.84;6278501;20;3686740;-50
2023/12/28 06:50:09;;;;;;;;;119.33;94.00;;;;;0.01;100.00;100286.59;6280379;20;3691003;-46
2023/12/28 06:52:39;;;;;;;;;101.67;76.00;;;;;0.89;100.00;100286.53;6281467;20;3678422;-48
2023/12/28 06:55:09;;;;;;;;;99.00;73.33;;;;;0.61;100.00;100278.06;6276436;20;3663825;-47
2023/12/28 06:57:38;;;;;;;;;103.33;76.33;;;;;0.54;100.00;100271.97;6310740;20;3687181;-48
2023/12/28 07:00:10;;;;;;;;;102.00;81.00;;;;;0.53;100.00;100262.31;6272919;20;3700401;-47
2023/12/28 07:02:39;;;;;;;;;100.33;78.00;;;;;0.96;100.00;100259.13;6280142;20;3672131;-47
2023/12/28 07:05:09;;;;;;;;;97.67;70.67;;;;;1.37;100.00;100260.31;6278203;20;3654568;-45
2023/12/28 07:07:39;;;;;;;;;89.00;66.67;;;;;0.78;100.00;100262.00;6309684;20;3655510;-49
2023/12/28 07:10:08;;;;;;;;;89.67;66.00;;;;;0.84;100.00;100269.84;6313011;20;3665903;-45
2023/12/28 07:12:38;;;;;;;;;76.33;58.67;;;;;0.83;100.00;100268.09;6310825;20;2873625;-50
2023/12/28 07:15:13;;;;;;;;;80.00;59.00;;;;;0.98;100.00;100267.03;6309856;20;3647163;-46
2023/12/28 07:17:43;;;;;;;;;67.33;50.33;;;;;1.40;100.00;100277.94;6311003;20;2876471;-46
2023/12/28 07:20:13;;;;;;;;;84.00;61.00;;;;;2.08;100.00;100280.34;6309656;20;3658589;-48
2023/12/28 07:22:43;;;;;;;;;227.50;170.75;;;;;2.08;100.00;100285.63;6311733;20;3711691;-46
2023/12/28 07:25:13;;;;;;;;;100.33;76.00;;;;;2.09;100.00;100282.09;6275154;20;3668064;-48
2023/12/28 07:27:43;;;;;;;;;83.33;64.67;;;;;1.67;100.00;100281.91;6280783;20;3627370;-50
2023/12/28 07:30:13;;;;;;;;;122.33;98.00;;;;;2.14;100.00;100286.41;6310787;20;3704464;-46
2023/12/28 07:32:45;;;;;;;;;129.33;110.67;;;;;2.35;100.00;100294.91;6278862;20;3710657;-51
2023/12/28 07:35:15;;;;;;;;;100.00;79.00;;;;;1.72;100.00;100290.66;6278244;20;3686760;-47
2023/12/28 07:37:45;;;;;;;;;95.67;70.67;;;;;1.84;100.00;100297.50;6280827;20;3659695;-45
2023/12/28 07:40:15;;;;;;;;;84.00;64.00;;;;;2.21;100.00;100281.88;6308567;20;3645113;-50
2023/12/28 07:42:45;;;;;;;;;78.67;62.33;;;;;2.28;100.00;100287.94;6311360;20;3628362;-49
2023/12/28 07:45:15;;;;;;;;;69.67;52.33;;;;;2.30;100.00;100283.50;6309780;20;2879502;-47
2023/12/28 07:47:44;;;;;;;;;74.00;59.00;;;;;2.30;100.00;100284.38;6310850;20;2881922;-49
2023/12/28 07:50:15;;;;;;;;;62.33;45.00;;;;;2.39;100.00;100281.53;6276190;20;2868195;-49
2023/12/28 07:52:46;;;;;;;;;74.67;55.67;;;;;2.53;100.00;100291.03;6310655;20;3630470;-46
2023/12/28 07:55:16;;;;;;;;;80.33;61.33;;;;;2.53;100.00;100286.59;6308002;20;2885670;-47
2023/12/28 07:57:45;;;;;;;;;74.00;59.00;;;;;2.59;100.00;100296.22;6308386;20;2861828;-49
2023/12/28 08:00:15;;;;;;;;;72.00;55.33;;;;;2.83;100.00;100298.38;6275658;20;2881564;-49
2023/12/28 08:02:45;;;;;;;;;86.00;66.67;;;;;3.00;100.00;100306.00;6311278;20;3636098;-46
2023/12/28 08:05:15;;;;;;;;;81.00;63.33;;;;;3.20;100.00;100308.22;6308013;20;3638777;-54
2023/12/28 08:07:44;;;;;;;;;79.00;62.33;;;;;3.16;100.00;100306.56;6308439;20;2881614;-47
2023/12/28 08:10:14;;;;;;;;;86.67;64.67;;;;;3.43;100.00;100323.66;6310219;20;3657674;-48
2023/12/28 08:12:44;;;;;;;;;84.33;63.00;;;;;3.53;100.00;100326.97;6310929;20;3647180;-51
2023/12/28 08:15:13;;;;;;;;;85.00;63.67;;;;;3.67;100.00;100327.53;6308773;20;3661695;-50
2023/12/28 08:17:43;;;;;;;;;79.33;62.33;;;;;3.53;100.00;100311.06;6310212;20;3628369;-52
2023/12/28 08:20:13;;;;;;;;;83.33;65.00;;;;;3.92;100.00;100313.66;6310954;20;3650314;-52
2023/12/28 08:22:43;;;;;;;;;74.67;58.33;;;;;4.00;100.00;100311.69;6274288;20;2889018;-51
2023/12/28 08:25:12;;;;;;;;;79.33;59.33;;;;;4.02;100.00;100315.19;6305513;20;3649237;-49
2023/12/28 08:27:42;;;;;;;;;69.33;54.67;;;;;4.21;100.00;100320.03;6309920;20;3635767;-47
2023/12/28 08:30:12;;;;;;;;;93.33;73.33;;;;;4.15;100.00;100321.94;6309622;20;3666971;-48
2023/12/28 08:32:41;;;;;;;;;68.00;52.50;;;;;4.22;100.00;100325.31;6276563;20;2876353;-46
2023/12/28 08:35:11;;;;;;;;;82.33;64.33;;;;;4.01;100.00;100321.41;6275366;20;3635709;-53
2023/12/28 08:37:41;;;;;;;;;77.67;59.00;;;;;4.23;100.00;100318.22;6309715;20;3630515;-53
2023/12/28 08:40:15;;;;;;;;;81.00;59.67;;;;;3.96;100.00;100318.00;6306938;20;3649221;-51
2023/12/28 08:42:45;;;;;;;;;75.00;56.67;;;;;4.61;100.00;100315.44;6309201;20;3643988;-47
2023/12/28 08:45:15;;;;;;;;;77.67;57.67;;;;;4.84;100.00;100314.81;6307162;20;3637776;-53
2023/12/28 08:47:44;;;;;;;;;76.00;58.00;;;;;4.66;100.00;100312.66;6308547;20;2884721;-52
2023/12/28 08:50:15;;;;;;;;;79.00;59.33;;;;;4.23;100.00;100310.25;6304972;20;3648444;-49
2023/12/28 08:52:44;;;;;;;;;85.67;65.67;;;;;4.02;100.00;100314.31;6275621;20;3641935;-53
2023/12/28 08:55:14;;;;;;;;;80.00;62.00;;;;;4.15;100.00;100316.63;6304185;20;3636807;-49
2023/12/28 08:57:44;;;;;;;;;77.67;58.67;;;;;4.10;100.00;100322.97;6308208;20;3648249;-47
2023/12/28 09:00:16;;;;;;;;;75.67;56.33;;;;;4.21;100.00;100331.53;6304987;20;3641931;-47
2023/12/28 09:02:44;;;;;;;;;46.50;40.00;;;;;4.49;100.00;100331.72;6304307;20;2500351;-49
2023/12/28 09:05:14;;;;;;;;;64.00;51.00;;;;;4.44;100.00;100322.09;6276991;20;2876417;-49
2023/12/28 09:07:44;;;;;;;;;67.67;53.67;;;;;4.18;100.00;100323.63;6311191;20;3628399;-46
2023/12/28 09:10:14;;;;;;;;;64.33;51.33;;;;;5.19;100.00;100317.38;6311590;20;2879468;-49
2023/12/28 09:12:43;;;;;;;;;71.67;55.00;;;;;5.47;100.00;100323.59;6313654;20;2880594;-46
2023/12/28 09:15:13;;;;;;;;;73.00;53.67;;;;;5.75;100.00;100313.91;6314451;20;3644480;-46
2023/12/28 09:17:42;;;;;;;;;71.33;56.67;;;;;5.90;100.00;100314.28;6315166;20;3631901;-48
2023/12/28 09:20:12;;;;;;;;;72.67;58.33;;;;;5.85;100.00;100307.34;6312337;20;3617019;-46
2023/12/28 09:22:42;;;;;;;;;67.67;53.00;;;;;5.82;100.00;100303.00;6313956;20;3616945;-48
2023/12/28 09:25:11;;;;;;;;;66.67;52.33;;;;;5.42;100.00;100296.22;6314329;20;2871237;-47
2023/12/28 09:27:41;;;;;;;;;74.00;55.67;;;;;5.21;100.00;100288.91;6314593;20;3630496;-51
2023/12/28 09:30:11;;;;;;;;;67.00;52.33;;;;;5.48;100.00;100290.75;6313794;20;3623300;-49
2023/12/28 09:32:41;;;;;;;;;67.33;54.67;;;;;5.15;100.00;100284.63;6312723;20;3627476;-47
2023/12/28 09:35:11;;;;;;;;;65.00;51.67;;;;;5.59;100.00;100285.06;6300862;20;3614903;-50
2023/12/28 09:37:40;;;;;;;;;61.67;52.33;;;;;5.64;100.00;100272.47;6308546;20;2867135;-49
2023/12/28 09:40:11;;;;;;;;;61.33;46.33;;;;;6.47;100.00;100267.03;6310547;20;2874450;-49
2023/12/28 09:43:01;;;;;;;;;68.67;54.33;;;;;6.17;100.00;100261.00;6312783;20;2883760;-49
2023/12/28 09:45:31;;;;;;;;;74.67;58.00;;;;;6.74;100.00;100257.19;6308435;20;3643088;-48
2023/12/28 09:48:02;;;;;;;;;72.00;55.67;;;;;6.36;99.62;100264.75;6314096;20;3639876;-49
2023/12/28 09:50:33;;;;;;;;;72.00;54.00;;;;;6.53;99.67;100247.28;6313461;20;3644032;-50
2023/12/28 09:53:02;;;;;;;;;68.00;54.00;;;;;6.60;99.88;100254.16;6314202;20;3638172;-47
2023/12/28 09:55:32;;;;;;;;;75.00;59.00;;;;;6.38;99.22;100248.72;6310239;20;3627331;-47
2023/12/28 09:58:05;;;;;;;;;73.00;55.33;;;;;6.70;99.36;100242.22;6306941;20;3634733;-50
2023/12/28 10:00:35;;;;;;;;;65.67;52.67;;;;;7.11;98.75;100234.47;6307227;20;2867121;-50
2023/12/28 10:03:05;;;;;;;;;67.33;53.00;;;;;7.46;96.03;100229.53;6309240;20;3634720;-49
2023/12/28 10:05:35;;;;;;;;;65.33;50.00;;;;;7.53;93.78;100220.34;6308344;20;3630559;-51
2023/12/28 10:08:06;;;;;;;;;57.00;45.50;;;;;7.73;93.16;100216.84;6313441;20;2857599;-48
2023/12/28 10:10:35;;;;;;;;;65.33;51.00;;;;;7.33;94.09;100221.13;6278664;20;3623179;-48
2023/12/28 10:13:07;;;;;;;;;66.00;49.67;;;;;7.36;93.97;100222.81;6312384;20;3655472;-48
2023/12/28 10:15:38;;;;;;;;;63.33;49.00;;;;;7.07;97.55;100206.13;6273598;20;2880548;-48
2023/12/28 10:18:07;;;;;;;;;63.33;49.00;;;;;7.94;94.28;100203.50;6312833;20;2853447;-46
2023/12/28 10:20:39;;;;;;;;;62.00;47.67;;;;;7.96;92.19;100193.63;6312281;20;3635670;-48
2023/12/28 10:23:10;;;;;;;;;66.00;52.33;;;;;8.10;92.67;100192.09;6309769;20;2865965;-46
2023/12/28 10:25:39;;;;;;;;;58.67;45.33;;;;;8.18;92.78;100178.38;6308797;20;2868136;-47
2023/12/28 10:28:12;;;;;;;;;59.67;47.33;;;;;8.26;92.85;100173.56;6309025;20;3629477;-48
2023/12/28 10:30:42;;;;;;;;;62.33;48.33;;;;;7.45;94.82;100177.00;6314424;20;3638825;-47
2023/12/28 10:33:11;;;;;;;;;60.00;49.00;;;;;7.96;92.88;100169.56;6311830;20;2857663;-46
2023/12/28 10:35:43;;;;;;;;;59.67;47.33;;;;;8.11;93.26;100175.13;6276678;20;2863010;-51
2023/12/28 10:38:17;;;;;;;;;62.00;49.00;;;;;8.40;92.75;100181.03;6308670;20;3607608;-52
2023/12/28 10:40:50;;;;;;;;;60.33;48.00;;;;;7.87;94.36;100173.47;6312834;20;3620059;-52
2023/12/28 10:43:23;;;;;;;;;56.00;45.33;;;;;8.16;92.06;100177.56;6308716;20;2862822;-50
2023/12/28 10:45:57;;;;;;;;;60.67;48.67;;;;;8.69;92.27;100171.69;6309009;20;2873253;-50
2023/12/28 10:48:34;;;;;;;;;58.33;45.00;;;;;8.76;90.11;100180.28;6312424;20;2862858;-51
2023/12/28 10:51:08;;;;;;;;;56.33;47.00;;;;;8.64;93.07;100172.84;6312733;20;2859673;-50
2023/12/28 10:53:56;;;;;;;;;57.00;46.33;;;;;8.57;92.44;100181.13;6305660;20;3629447;-52
2023/12/28 10:56:48;;;;;;;;;53.00;44.67;;;;;8.91;92.08;100170.66;6309163;20;2868220;-52
2023/12/28 10:59:56;;;;;;;;;58.33;48.33;;;;;8.89;90.95;100168.06;6311142;20;2865999;-54
2023/12/28 11:02:39;;;;;;;;;61.00;47.50;;;;;8.91;91.06;100159.97;6309975;20;2693028;-48
2023/12/28 11:05:09;;;;;;;;;60.33;46.33;;;;;8.84;91.04;100151.34;6307221;20;3626412;-47
2023/12/28 11:07:41;;;;;;;;;57.33;47.00;;;;;9.12;89.70;100153.56;6309962;20;3619152;-47
2023/12/28 11:10:14;;;;;;;;;59.00;47.33;;;;;9.01;91.75;100150.56;6309883;20;3619159;-48